sensor_id;sensor_type;location;lat;lon;timestamp;P1;durP1;ratioP1;P2;durP2;ratioP2
57071;SDS011;42956;51.366;11.298;2023-02-28T00:00:54;5.15;;;2.25;;
57071;SDS011;42956;51.366;11.298;2023-02-28T00:03:21;4.65;;;2.17;;
57071;SDS011;42956;51.366;11.298;2023-02-28T00:05:49;3.22;;;2.10;;
57071;SDS011;42956;51.366;11.298;2023-02-28T00:08:17;6.47;;;1.70;;
57071;SDS011;42956;51.366;11.298;2023-02-28T00:10:47;4.05;;;2.40;;
57071;SDS011;42956;51.366;11.298;2023-02-28T00:13:14;3.85;;;1.95;;
57071;SDS011;42956;51.366;11.298;2023-02-28T00:15:43;4.28;;;1.60;;
57071;SDS011;42956;51.366;11.298;2023-02-28T00:18:11;3.40;;;2.08;;
57071;SDS011;42956;51.366;11.298;2023-02-28T00:20:40;5.22;;;2.50;;
57071;SDS011;42956;51.366;11.298;2023-02-28T00:23:08;2.30;;;1.83;;
57071;SDS011;42956;51.366;11.298;2023-02-28T00:25:36;5.22;;;2.20;;
57071;SDS011;42956;51.366;11.298;2023-02-28T00:28:05;6.15;;;2.10;;
57071;SDS011;42956;51.366;11.298;2023-02-28T00:30:36;3.97;;;2.08;;
57071;SDS011;42956;51.366;11.298;2023-02-28T00:33:04;8.23;;;4.00;;
57071;SDS011;42956;51.366;11.298;2023-02-28T00:35:32;4.90;;;2.40;;
57071;SDS011;42956;51.366;11.298;2023-02-28T00:37:59;3.53;;;2.30;;
57071;SDS011;42956;51.366;11.298;2023-02-28T00:40:28;4.45;;;2.13;;
57071;SDS011;42956;51.366;11.298;2023-02-28T00:42:56;2.58;;;1.67;;
57071;SDS011;42956;51.366;11.298;2023-02-28T00:45:25;3.15;;;1.70;;
57071;SDS011;42956;51.366;11.298;2023-02-28T00:47:53;3.92;;;2.38;;
57071;SDS011;42956;51.366;11.298;2023-02-28T00:50:21;5.88;;;2.70;;
57071;SDS011;42956;51.366;11.298;2023-02-28T00:52:49;2.90;;;1.92;;
57071;SDS011;42956;51.366;11.298;2023-02-28T00:55:17;2.92;;;2.28;;
57071;SDS011;42956;51.366;11.298;2023-02-28T00:57:46;3.90;;;2.00;;
57071;SDS011;42956;51.366;11.298;2023-02-28T01:00:14;2.97;;;1.88;;
57071;SDS011;42956;51.366;11.298;2023-02-28T01:02:43;3.25;;;1.90;;
57071;SDS011;42956;51.366;11.298;2023-02-28T01:05:11;6.55;;;1.80;;
57071;SDS011;42956;51.366;11.298;2023-02-28T01:07:39;3.92;;;2.17;;
57071;SDS011;42956;51.366;11.298;2023-02-28T01:10:07;3.03;;;1.83;;
57071;SDS011;42956;51.366;11.298;2023-02-28T01:12:35;2.42;;;1.60;;
57071;SDS011;42956;51.366;11.298;2023-02-28T01:15:04;3.17;;;1.98;;
57071;SDS011;42956;51.366;11.298;2023-02-28T01:17:31;3.10;;;1.95;;
57071;SDS011;42956;51.366;11.298;2023-02-28T01:20:01;3.28;;;2.03;;
57071;SDS011;42956;51.366;11.298;2023-02-28T01:22:29;6.15;;;1.98;;
57071;SDS011;42956;51.366;11.298;2023-02-28T01:24:57;5.35;;;2.17;;
57071;SDS011;42956;51.366;11.298;2023-02-28T01:27:25;1.92;;;1.70;;
57071;SDS011;42956;51.366;11.298;2023-02-28T01:29:53;4.32;;;2.20;;
57071;SDS011;42956;51.366;11.298;2023-02-28T01:32:21;3.90;;;2.17;;
57071;SDS011;42956;51.366;11.298;2023-02-28T01:34:48;2.33;;;2.05;;
57071;SDS011;42956;51.366;11.298;2023-02-28T01:37:18;3.75;;;1.90;;
57071;SDS011;42956;51.366;11.298;2023-02-28T01:39:46;5.57;;;2.47;;
57071;SDS011;42956;51.366;11.298;2023-02-28T01:42:14;4.25;;;2.15;;
57071;SDS011;42956;51.366;11.298;2023-02-28T01:44:55;3.50;;;2.10;;
57071;SDS011;42956;51.366;11.298;2023-02-28T01:47:26;4.05;;;2.33;;
57071;SDS011;42956;51.366;11.298;2023-02-28T01:49:54;3.88;;;2.08;;
57071;SDS011;42956;51.366;11.298;2023-02-28T01:52:23;3.50;;;2.25;;
57071;SDS011;42956;51.366;11.298;2023-02-28T01:54:52;4.32;;;2.22;;
57071;SDS011;42956;51.366;11.298;2023-02-28T01:57:22;4.18;;;2.05;;
57071;SDS011;42956;51.366;11.298;2023-02-28T01:59:52;2.63;;;2.10;;
57071;SDS011;42956;51.366;11.298;2023-02-28T02:02:22;6.03;;;2.58;;
57071;SDS011;42956;51.366;11.298;2023-02-28T02:04:51;6.30;;;2.22;;
57071;SDS011;42956;51.366;11.298;2023-02-28T02:07:20;2.78;;;2.10;;
57071;SDS011;42956;51.366;11.298;2023-02-28T02:09:56;6.50;;;2.03;;
57071;SDS011;42956;51.366;11.298;2023-02-28T02:12:26;4.75;;;1.65;;
57071;SDS011;42956;51.366;11.298;2023-02-28T02:15:00;3.30;;;2.17;;
57071;SDS011;42956;51.366;11.298;2023-02-28T02:17:32;2.85;;;1.88;;
57071;SDS011;42956;51.366;11.298;2023-02-28T02:20:11;3.83;;;2.00;;
57071;SDS011;42956;51.366;11.298;2023-02-28T02:22:49;3.75;;;2.33;;
57071;SDS011;42956;51.366;11.298;2023-02-28T02:25:26;3.13;;;2.53;;
57071;SDS011;42956;51.366;11.298;2023-02-28T02:28:03;3.15;;;2.30;;
57071;SDS011;42956;51.366;11.298;2023-02-28T02:30:43;4.32;;;2.35;;
57071;SDS011;42956;51.366;11.298;2023-02-28T02:33:24;3.80;;;2.35;;
57071;SDS011;42956;51.366;11.298;2023-02-28T02:35:55;2.08;;;1.88;;
57071;SDS011;42956;51.366;11.298;2023-02-28T02:38:28;6.22;;;1.90;;
57071;SDS011;42956;51.366;11.298;2023-02-28T02:40:59;5.80;;;2.10;;
57071;SDS011;42956;51.366;11.298;2023-02-28T02:43:29;3.83;;;2.17;;
57071;SDS011;42956;51.366;11.298;2023-02-28T02:45:58;3.38;;;2.28;;
57071;SDS011;42956;51.366;11.298;2023-02-28T02:48:29;1.95;;;1.67;;
57071;SDS011;42956;51.366;11.298;2023-02-28T02:51:00;3.10;;;2.25;;
57071;SDS011;42956;51.366;11.298;2023-02-28T02:53:29;3.80;;;2.72;;
57071;SDS011;42956;51.366;11.298;2023-02-28T02:55:58;5.43;;;2.30;;
57071;SDS011;42956;51.366;11.298;2023-02-28T02:58:28;2.92;;;2.03;;
57071;SDS011;42956;51.366;11.298;2023-02-28T03:00:58;5.13;;;2.90;;
57071;SDS011;42956;51.366;11.298;2023-02-28T03:03:28;3.17;;;2.15;;
57071;SDS011;42956;51.366;11.298;2023-02-28T03:05:58;4.00;;;2.28;;
57071;SDS011;42956;51.366;11.298;2023-02-28T03:08:28;5.80;;;2.30;;
57071;SDS011;42956;51.366;11.298;2023-02-28T03:10:56;4.88;;;2.55;;
57071;SDS011;42956;51.366;11.298;2023-02-28T03:13:31;2.63;;;2.22;;
57071;SDS011;42956;51.366;11.298;2023-02-28T03:16:07;4.28;;;2.10;;
57071;SDS011;42956;51.366;11.298;2023-02-28T03:18:40;3.92;;;2.47;;
57071;SDS011;42956;51.366;11.298;2023-02-28T03:21:12;1.77;;;1.60;;
57071;SDS011;42956;51.366;11.298;2023-02-28T03:23:48;10.02;;;2.78;;
57071;SDS011;42956;51.366;11.298;2023-02-28T03:26:20;2.63;;;2.22;;
57071;SDS011;42956;51.366;11.298;2023-02-28T03:28:51;3.78;;;2.10;;
57071;SDS011;42956;51.366;11.298;2023-02-28T03:31:21;2.63;;;1.83;;
57071;SDS011;42956;51.366;11.298;2023-02-28T03:33:55;3.78;;;2.50;;
57071;SDS011;42956;51.366;11.298;2023-02-28T03:36:24;5.28;;;2.67;;
57071;SDS011;42956;51.366;11.298;2023-02-28T03:38:55;3.72;;;2.10;;
57071;SDS011;42956;51.366;11.298;2023-02-28T03:41:25;4.05;;;2.38;;
57071;SDS011;42956;51.366;11.298;2023-02-28T03:43:56;4.72;;;2.33;;
57071;SDS011;42956;51.366;11.298;2023-02-28T03:46:27;6.60;;;2.40;;
57071;SDS011;42956;51.366;11.298;2023-02-28T03:48:59;3.50;;;2.40;;
57071;SDS011;42956;51.366;11.298;2023-02-28T03:51:29;4.82;;;2.42;;
57071;SDS011;42956;51.366;11.298;2023-02-28T03:53:59;4.93;;;2.58;;
57071;SDS011;42956;51.366;11.298;2023-02-28T03:56:31;4.85;;;2.67;;
57071;SDS011;42956;51.366;11.298;2023-02-28T03:59:01;3.88;;;2.38;;
57071;SDS011;42956;51.366;11.298;2023-02-28T04:01:31;4.60;;;2.60;;
57071;SDS011;42956;51.366;11.298;2023-02-28T04:04:01;3.28;;;2.30;;
57071;SDS011;42956;51.366;11.298;2023-02-28T04:06:30;3.58;;;2.65;;
57071;SDS011;42956;51.366;11.298;2023-02-28T04:08:59;4.45;;;2.58;;
57071;SDS011;42956;51.366;11.298;2023-02-28T04:11:27;3.50;;;2.58;;
57071;SDS011;42956;51.366;11.298;2023-02-28T04:13:58;7.90;;;2.88;;
57071;SDS011;42956;51.366;11.298;2023-02-28T04:16:25;5.45;;;2.47;;
57071;SDS011;42956;51.366;11.298;2023-02-28T04:19:01;5.65;;;2.72;;
57071;SDS011;42956;51.366;11.298;2023-02-28T04:21:30;5.57;;;2.78;;
57071;SDS011;42956;51.366;11.298;2023-02-28T04:24:00;5.93;;;3.47;;
57071;SDS011;42956;51.366;11.298;2023-02-28T04:26:29;6.20;;;2.90;;
57071;SDS011;42956;51.366;11.298;2023-02-28T04:28:57;5.07;;;2.80;;
57071;SDS011;42956;51.366;11.298;2023-02-28T04:31:26;7.07;;;3.60;;
57071;SDS011;42956;51.366;11.298;2023-02-28T04:33:54;3.13;;;2.53;;
57071;SDS011;42956;51.366;11.298;2023-02-28T04:36:22;7.60;;;2.90;;
57071;SDS011;42956;51.366;11.298;2023-02-28T04:38:50;3.85;;;2.63;;
57071;SDS011;42956;51.366;11.298;2023-02-28T04:41:20;6.47;;;3.15;;
57071;SDS011;42956;51.366;11.298;2023-02-28T04:43:49;6.95;;;2.90;;
57071;SDS011;42956;51.366;11.298;2023-02-28T04:46:18;5.53;;;2.78;;
57071;SDS011;42956;51.366;11.298;2023-02-28T04:48:46;5.03;;;2.95;;
57071;SDS011;42956;51.366;11.298;2023-02-28T04:51:15;4.60;;;2.65;;
57071;SDS011;42956;51.366;11.298;2023-02-28T04:53:43;5.47;;;3.35;;
57071;SDS011;42956;51.366;11.298;2023-02-28T04:56:11;5.05;;;2.88;;
57071;SDS011;42956;51.366;11.298;2023-02-28T04:58:40;7.88;;;4.88;;
57071;SDS011;42956;51.366;11.298;2023-02-28T05:01:16;5.82;;;3.03;;
57071;SDS011;42956;51.366;11.298;2023-02-28T05:03:43;6.30;;;2.97;;
57071;SDS011;42956;51.366;11.298;2023-02-28T05:06:12;7.95;;;3.33;;
57071;SDS011;42956;51.366;11.298;2023-02-28T05:08:40;6.22;;;2.92;;
57071;SDS011;42956;51.366;11.298;2023-02-28T05:11:12;8.10;;;4.05;;
57071;SDS011;42956;51.366;11.298;2023-02-28T05:13:42;5.10;;;2.90;;
57071;SDS011;42956;51.366;11.298;2023-02-28T05:16:10;7.50;;;3.70;;
57071;SDS011;42956;51.366;11.298;2023-02-28T05:18:37;9.07;;;4.88;;
57071;SDS011;42956;51.366;11.298;2023-02-28T05:21:06;5.50;;;3.88;;
57071;SDS011;42956;51.366;11.298;2023-02-28T05:23:33;6.85;;;3.22;;
57071;SDS011;42956;51.366;11.298;2023-02-28T05:26:01;6.82;;;3.60;;
57071;SDS011;42956;51.366;11.298;2023-02-28T05:28:29;6.90;;;3.53;;
57071;SDS011;42956;51.366;11.298;2023-02-28T05:30:58;4.53;;;3.45;;
57071;SDS011;42956;51.366;11.298;2023-02-28T05:33:26;6.15;;;3.10;;
57071;SDS011;42956;51.366;11.298;2023-02-28T05:35:54;6.00;;;3.42;;
57071;SDS011;42956;51.366;11.298;2023-02-28T05:38:22;6.10;;;3.38;;
57071;SDS011;42956;51.366;11.298;2023-02-28T05:40:50;4.88;;;3.08;;
57071;SDS011;42956;51.366;11.298;2023-02-28T05:43:18;5.65;;;3.08;;
57071;SDS011;42956;51.366;11.298;2023-02-28T05:45:46;5.70;;;3.50;;
57071;SDS011;42956;51.366;11.298;2023-02-28T05:48:15;4.97;;;3.28;;
57071;SDS011;42956;51.366;11.298;2023-02-28T05:50:43;5.80;;;3.72;;
57071;SDS011;42956;51.366;11.298;2023-02-28T05:53:12;8.30;;;3.80;;
57071;SDS011;42956;51.366;11.298;2023-02-28T05:55:40;11.55;;;3.55;;
57071;SDS011;42956;51.366;11.298;2023-02-28T05:58:08;5.82;;;3.20;;
57071;SDS011;42956;51.366;11.298;2023-02-28T06:00:36;5.13;;;3.35;;
57071;SDS011;42956;51.366;11.298;2023-02-28T06:03:07;6.25;;;3.90;;
57071;SDS011;42956;51.366;11.298;2023-02-28T06:05:36;7.03;;;3.65;;
57071;SDS011;42956;51.366;11.298;2023-02-28T06:08:05;3.55;;;3.08;;
57071;SDS011;42956;51.366;11.298;2023-02-28T06:10:33;6.53;;;4.55;;
57071;SDS011;42956;51.366;11.298;2023-02-28T06:13:02;6.30;;;3.60;;
57071;SDS011;42956;51.366;11.298;2023-02-28T06:15:30;7.50;;;4.53;;
57071;SDS011;42956;51.366;11.298;2023-02-28T06:17:58;9.30;;;4.07;;
57071;SDS011;42956;51.366;11.298;2023-02-28T06:20:27;4.95;;;3.42;;
57071;SDS011;42956;51.366;11.298;2023-02-28T06:22:57;8.05;;;3.65;;
57071;SDS011;42956;51.366;11.298;2023-02-28T06:25:26;4.55;;;3.20;;
57071;SDS011;42956;51.366;11.298;2023-02-28T06:27:54;8.18;;;4.47;;
57071;SDS011;42956;51.366;11.298;2023-02-28T06:30:23;5.53;;;3.40;;
57071;SDS011;42956;51.366;11.298;2023-02-28T06:32:53;6.68;;;4.65;;
57071;SDS011;42956;51.366;11.298;2023-02-28T06:35:21;8.93;;;3.90;;
57071;SDS011;42956;51.366;11.298;2023-02-28T06:37:49;6.43;;;3.45;;
57071;SDS011;42956;51.366;11.298;2023-02-28T06:40:18;6.07;;;3.63;;
57071;SDS011;42956;51.366;11.298;2023-02-28T06:42:46;8.45;;;4.28;;
57071;SDS011;42956;51.366;11.298;2023-02-28T06:45:14;8.57;;;3.50;;
57071;SDS011;42956;51.366;11.298;2023-02-28T06:47:42;6.68;;;3.97;;
57071;SDS011;42956;51.366;11.298;2023-02-28T06:50:11;5.60;;;3.60;;
57071;SDS011;42956;51.366;11.298;2023-02-28T06:52:39;5.57;;;3.58;;
57071;SDS011;42956;51.366;11.298;2023-02-28T06:55:08;6.18;;;3.95;;
57071;SDS011;42956;51.366;11.298;2023-02-28T06:57:37;11.20;;;7.00;;
57071;SDS011;42956;51.366;11.298;2023-02-28T07:00:06;9.77;;;5.35;;
57071;SDS011;42956;51.366;11.298;2023-02-28T07:02:34;11.02;;;5.47;;
57071;SDS011;42956;51.366;11.298;2023-02-28T07:05:02;8.02;;;5.72;;
57071;SDS011;42956;51.366;11.298;2023-02-28T07:07:30;11.63;;;5.25;;
57071;SDS011;42956;51.366;11.298;2023-02-28T07:09:58;11.40;;;4.68;;
57071;SDS011;42956;51.366;11.298;2023-02-28T07:12:26;5.53;;;4.28;;
57071;SDS011;42956;51.366;11.298;2023-02-28T07:14:55;11.02;;;4.22;;
57071;SDS011;42956;51.366;11.298;2023-02-28T07:17:23;6.93;;;4.75;;
57071;SDS011;42956;51.366;11.298;2023-02-28T07:19:51;9.20;;;5.57;;
57071;SDS011;42956;51.366;11.298;2023-02-28T07:22:19;7.90;;;4.70;;
57071;SDS011;42956;51.366;11.298;2023-02-28T07:24:47;8.98;;;5.25;;
57071;SDS011;42956;51.366;11.298;2023-02-28T07:27:14;6.95;;;4.07;;
57071;SDS011;42956;51.366;11.298;2023-02-28T07:29:50;6.85;;;3.78;;
57071;SDS011;42956;51.366;11.298;2023-02-28T07:32:19;6.15;;;3.90;;
57071;SDS011;42956;51.366;11.298;2023-02-28T07:34:48;10.68;;;4.13;;
57071;SDS011;42956;51.366;11.298;2023-02-28T07:37:16;6.53;;;3.72;;
57071;SDS011;42956;51.366;11.298;2023-02-28T07:39:44;10.60;;;4.72;;
57071;SDS011;42956;51.366;11.298;2023-02-28T07:42:12;11.85;;;6.80;;
57071;SDS011;42956;51.366;11.298;2023-02-28T07:44:40;12.57;;;6.88;;
57071;SDS011;42956;51.366;11.298;2023-02-28T07:47:09;7.32;;;5.00;;
57071;SDS011;42956;51.366;11.298;2023-02-28T07:49:38;8.25;;;4.97;;
57071;SDS011;42956;51.366;11.298;2023-02-28T07:52:06;6.65;;;4.47;;
57071;SDS011;42956;51.366;11.298;2023-02-28T07:54:37;8.57;;;4.88;;
57071;SDS011;42956;51.366;11.298;2023-02-28T07:57:05;5.97;;;3.60;;
57071;SDS011;42956;51.366;11.298;2023-02-28T07:59:33;7.13;;;4.40;;
57071;SDS011;42956;51.366;11.298;2023-02-28T08:02:01;7.40;;;5.07;;
57071;SDS011;42956;51.366;11.298;2023-02-28T08:04:31;9.35;;;4.57;;
57071;SDS011;42956;51.366;11.298;2023-02-28T08:07:00;6.60;;;4.70;;
57071;SDS011;42956;51.366;11.298;2023-02-28T08:09:28;6.35;;;4.80;;
57071;SDS011;42956;51.366;11.298;2023-02-28T08:11:56;7.03;;;4.35;;
57071;SDS011;42956;51.366;11.298;2023-02-28T08:14:24;8.88;;;4.28;;
57071;SDS011;42956;51.366;11.298;2023-02-28T08:16:52;9.60;;;4.78;;
57071;SDS011;42956;51.366;11.298;2023-02-28T08:19:20;8.02;;;4.78;;
57071;SDS011;42956;51.366;11.298;2023-02-28T08:21:48;7.03;;;4.55;;
57071;SDS011;42956;51.366;11.298;2023-02-28T08:24:17;12.20;;;4.68;;
57071;SDS011;42956;51.366;11.298;2023-02-28T08:26:45;8.35;;;4.70;;
57071;SDS011;42956;51.366;11.298;2023-02-28T08:29:13;7.25;;;3.97;;
57071;SDS011;42956;51.366;11.298;2023-02-28T08:31:41;6.30;;;4.13;;
57071;SDS011;42956;51.366;11.298;2023-02-28T08:34:10;9.32;;;3.88;;
57071;SDS011;42956;51.366;11.298;2023-02-28T08:36:39;6.18;;;4.25;;
57071;SDS011;42956;51.366;11.298;2023-02-28T08:39:11;9.05;;;4.72;;
57071;SDS011;42956;51.366;11.298;2023-02-28T08:41:41;11.25;;;4.20;;
57071;SDS011;42956;51.366;11.298;2023-02-28T08:44:10;9.00;;;3.70;;
57071;SDS011;42956;51.366;11.298;2023-02-28T08:46:38;9.43;;;4.38;;
57071;SDS011;42956;51.366;11.298;2023-02-28T08:49:06;3.88;;;3.08;;
57071;SDS011;42956;51.366;11.298;2023-02-28T08:51:36;9.50;;;3.70;;
57071;SDS011;42956;51.366;11.298;2023-02-28T08:54:04;6.40;;;3.75;;
57071;SDS011;42956;51.366;11.298;2023-02-28T08:56:31;7.18;;;3.92;;
57071;SDS011;42956;51.366;11.298;2023-02-28T08:59:00;5.70;;;4.03;;
57071;SDS011;42956;51.366;11.298;2023-02-28T09:01:29;10.63;;;4.65;;
57071;SDS011;42956;51.366;11.298;2023-02-28T09:03:58;5.50;;;3.50;;
57071;SDS011;42956;51.366;11.298;2023-02-28T09:06:26;5.45;;;3.60;;
57071;SDS011;42956;51.366;11.298;2023-02-28T09:08:56;9.65;;;3.58;;
57071;SDS011;42956;51.366;11.298;2023-02-28T09:11:24;8.55;;;4.13;;
57071;SDS011;42956;51.366;11.298;2023-02-28T09:13:54;8.82;;;4.40;;
57071;SDS011;42956;51.366;11.298;2023-02-28T09:16:24;5.05;;;3.35;;
57071;SDS011;42956;51.366;11.298;2023-02-28T09:18:52;7.45;;;3.85;;
57071;SDS011;42956;51.366;11.298;2023-02-28T09:21:20;6.38;;;3.65;;
57071;SDS011;42956;51.366;11.298;2023-02-28T09:23:49;5.68;;;3.25;;
57071;SDS011;42956;51.366;11.298;2023-02-28T09:26:17;9.45;;;3.55;;
57071;SDS011;42956;51.366;11.298;2023-02-28T09:28:46;5.95;;;3.72;;
57071;SDS011;42956;51.366;11.298;2023-02-28T09:31:14;3.50;;;2.90;;
57071;SDS011;42956;51.366;11.298;2023-02-28T09:33:43;3.45;;;2.95;;
57071;SDS011;42956;51.366;11.298;2023-02-28T09:36:11;8.45;;;3.50;;
57071;SDS011;42956;51.366;11.298;2023-02-28T09:38:39;9.02;;;3.85;;
57071;SDS011;42956;51.366;11.298;2023-02-28T09:41:13;7.82;;;3.53;;
57071;SDS011;42956;51.366;11.298;2023-02-28T09:43:41;12.73;;;3.55;;
57071;SDS011;42956;51.366;11.298;2023-02-28T09:46:14;5.63;;;3.40;;
57071;SDS011;42956;51.366;11.298;2023-02-28T09:48:44;7.18;;;3.60;;
57071;SDS011;42956;51.366;11.298;2023-02-28T09:51:15;5.38;;;3.65;;
57071;SDS011;42956;51.366;11.298;2023-02-28T09:53:49;6.05;;;3.60;;
57071;SDS011;42956;51.366;11.298;2023-02-28T09:56:27;4.82;;;3.38;;
57071;SDS011;42956;51.366;11.298;2023-02-28T09:58:59;8.18;;;3.70;;
57071;SDS011;42956;51.366;11.298;2023-02-28T10:01:31;7.55;;;3.72;;
57071;SDS011;42956;51.366;11.298;2023-02-28T10:04:05;6.68;;;4.10;;
57071;SDS011;42956;51.366;11.298;2023-02-28T10:06:36;5.90;;;3.40;;
57071;SDS011;42956;51.366;11.298;2023-02-28T10:09:08;9.10;;;4.00;;
57071;SDS011;42956;51.366;11.298;2023-02-28T10:11:40;9.30;;;4.53;;
57071;SDS011;42956;51.366;11.298;2023-02-28T10:14:10;6.30;;;3.50;;
57071;SDS011;42956;51.366;11.298;2023-02-28T10:16:41;4.57;;;3.50;;
57071;SDS011;42956;51.366;11.298;2023-02-28T10:19:14;5.20;;;3.55;;
57071;SDS011;42956;51.366;11.298;2023-02-28T10:21:45;5.35;;;3.55;;
57071;SDS011;42956;51.366;11.298;2023-02-28T10:24:18;6.38;;;3.65;;
57071;SDS011;42956;51.366;11.298;2023-02-28T10:26:47;5.53;;;3.38;;
57071;SDS011;42956;51.366;11.298;2023-02-28T10:29:15;7.57;;;3.53;;
57071;SDS011;42956;51.366;11.298;2023-02-28T10:31:43;7.35;;;3.05;;
57071;SDS011;42956;51.366;11.298;2023-02-28T10:34:11;6.63;;;2.75;;
57071;SDS011;42956;51.366;11.298;2023-02-28T10:36:41;6.78;;;4.22;;
57071;SDS011;42956;51.366;11.298;2023-02-28T10:41:58;4.50;;;3.20;;
57071;SDS011;42956;51.366;11.298;2023-02-28T10:44:25;6.10;;;3.90;;
57071;SDS011;42956;51.366;11.298;2023-02-28T10:46:53;4.03;;;3.45;;
57071;SDS011;42956;51.366;11.298;2023-02-28T10:49:22;5.05;;;4.03;;
57071;SDS011;42956;51.366;11.298;2023-02-28T10:51:52;10.07;;;5.50;;
57071;SDS011;42956;51.366;11.298;2023-02-28T10:54:22;6.50;;;4.47;;
57071;SDS011;42956;51.366;11.298;2023-02-28T10:57:05;7.63;;;4.53;;
57071;SDS011;42956;51.366;11.298;2023-02-28T10:59:33;8.23;;;4.57;;
57071;SDS011;42956;51.366;11.298;2023-02-28T11:02:01;6.00;;;4.75;;
57071;SDS011;42956;51.366;11.298;2023-02-28T11:04:33;6.05;;;4.40;;
57071;SDS011;42956;51.366;11.298;2023-02-28T11:07:04;6.95;;;4.07;;
57071;SDS011;42956;51.366;11.298;2023-02-28T11:09:33;9.00;;;4.15;;
57071;SDS011;42956;51.366;11.298;2023-02-28T11:12:02;5.97;;;3.92;;
57071;SDS011;42956;51.366;11.298;2023-02-28T11:14:32;9.80;;;4.20;;
57071;SDS011;42956;51.366;11.298;2023-02-28T11:17:11;7.00;;;4.47;;
57071;SDS011;42956;51.366;11.298;2023-02-28T11:19:44;8.50;;;4.50;;
57071;SDS011;42956;51.366;11.298;2023-02-28T11:22:17;8.63;;;4.78;;
57071;SDS011;42956;51.366;11.298;2023-02-28T11:24:47;6.38;;;4.07;;
57071;SDS011;42956;51.366;11.298;2023-02-28T11:30:04;4.78;;;3.85;;
57071;SDS011;42956;51.366;11.298;2023-02-28T11:32:50;12.85;;;4.25;;
57071;SDS011;42956;51.366;11.298;2023-02-28T11:35:20;7.78;;;5.15;;
57071;SDS011;42956;51.366;11.298;2023-02-28T11:37:51;3.63;;;2.95;;
57071;SDS011;42956;51.366;11.298;2023-02-28T11:40:21;7.18;;;3.85;;
57071;SDS011;42956;51.366;11.298;2023-02-28T11:42:53;7.03;;;3.47;;
57071;SDS011;42956;51.366;11.298;2023-02-28T11:48:14;5.35;;;3.53;;
57071;SDS011;42956;51.366;11.298;2023-02-28T11:50:49;5.90;;;4.25;;
57071;SDS011;42956;51.366;11.298;2023-02-28T11:53:24;6.75;;;3.88;;
57071;SDS011;42956;51.366;11.298;2023-02-28T11:55:56;5.20;;;3.40;;
57071;SDS011;42956;51.366;11.298;2023-02-28T11:58:28;6.28;;;4.20;;
57071;SDS011;42956;51.366;11.298;2023-02-28T12:03:52;4.53;;;3.88;;
57071;SDS011;42956;51.366;11.298;2023-02-28T12:09:00;7.57;;;4.18;;
57071;SDS011;42956;51.366;11.298;2023-02-28T12:11:35;6.50;;;4.20;;
57071;SDS011;42956;51.366;11.298;2023-02-28T12:14:18;6.35;;;4.00;;
57071;SDS011;42956;51.366;11.298;2023-02-28T12:16:58;9.32;;;4.47;;
57071;SDS011;42956;51.366;11.298;2023-02-28T12:19:29;7.38;;;4.72;;
57071;SDS011;42956;51.366;11.298;2023-02-28T12:22:12;6.47;;;4.68;;
57071;SDS011;42956;51.366;11.298;2023-02-28T12:27:12;6.55;;;4.53;;
57071;SDS011;42956;51.366;11.298;2023-02-28T12:29:43;7.40;;;4.95;;
57071;SDS011;42956;51.366;11.298;2023-02-28T12:32:14;9.73;;;5.13;;
57071;SDS011;42956;51.366;11.298;2023-02-28T12:34:46;9.73;;;4.65;;
57071;SDS011;42956;51.366;11.298;2023-02-28T12:37:15;11.45;;;5.55;;
57071;SDS011;42956;51.366;11.298;2023-02-28T12:39:45;9.95;;;4.82;;
57071;SDS011;42956;51.366;11.298;2023-02-28T12:42:19;6.53;;;4.43;;
57071;SDS011;42956;51.366;11.298;2023-02-28T12:44:51;10.18;;;5.03;;
57071;SDS011;42956;51.366;11.298;2023-02-28T12:47:19;9.55;;;5.05;;
57071;SDS011;42956;51.366;11.298;2023-02-28T12:49:48;7.97;;;5.25;;
57071;SDS011;42956;51.366;11.298;2023-02-28T12:52:18;11.30;;;5.57;;
57071;SDS011;42956;51.366;11.298;2023-02-28T12:54:49;7.53;;;4.53;;
57071;SDS011;42956;51.366;11.298;2023-02-28T12:57:22;7.05;;;4.82;;
57071;SDS011;42956;51.366;11.298;2023-02-28T13:05:15;10.43;;;5.43;;
57071;SDS011;42956;51.366;11.298;2023-02-28T13:10:38;9.43;;;4.95;;
57071;SDS011;42956;51.366;11.298;2023-02-28T13:13:11;9.65;;;5.40;;
57071;SDS011;42956;51.366;11.298;2023-02-28T13:15:41;7.88;;;5.25;;
57071;SDS011;42956;51.366;11.298;2023-02-28T13:18:25;7.13;;;4.97;;
57071;SDS011;42956;51.366;11.298;2023-02-28T13:20:55;6.85;;;5.43;;
57071;SDS011;42956;51.366;11.298;2023-02-28T13:26:22;7.28;;;5.68;;
57071;SDS011;42956;51.366;11.298;2023-02-28T13:31:29;7.57;;;4.68;;
57071;SDS011;42956;51.366;11.298;2023-02-28T13:34:13;9.10;;;5.13;;
57071;SDS011;42956;51.366;11.298;2023-02-28T13:36:41;9.75;;;5.18;;
57071;SDS011;42956;51.366;11.298;2023-02-28T13:41:56;6.80;;;5.43;;
57071;SDS011;42956;51.366;11.298;2023-02-28T13:44:24;10.13;;;5.57;;
57071;SDS011;42956;51.366;11.298;2023-02-28T13:49:41;7.32;;;5.03;;
57071;SDS011;42956;51.366;11.298;2023-02-28T13:52:10;8.43;;;5.63;;
57071;SDS011;42956;51.366;11.298;2023-02-28T13:54:43;9.15;;;6.03;;
57071;SDS011;42956;51.366;11.298;2023-02-28T13:59:44;8.63;;;5.45;;
57071;SDS011;42956;51.366;11.298;2023-02-28T14:02:22;12.13;;;5.80;;
57071;SDS011;42956;51.366;11.298;2023-02-28T14:05:01;76.43;;;22.75;;
57071;SDS011;42956;51.366;11.298;2023-02-28T14:07:30;36.03;;;17.13;;
57071;SDS011;42956;51.366;11.298;2023-02-28T14:10:03;15.55;;;7.35;;
57071;SDS011;42956;51.366;11.298;2023-02-28T14:15:48;8.02;;;5.90;;
57071;SDS011;42956;51.366;11.298;2023-02-28T14:18:21;10.05;;;5.70;;
57071;SDS011;42956;51.366;11.298;2023-02-28T14:20:55;9.93;;;6.00;;
57071;SDS011;42956;51.366;11.298;2023-02-28T14:23:30;10.88;;;5.97;;
57071;SDS011;42956;51.366;11.298;2023-02-28T14:26:01;10.32;;;5.88;;
57071;SDS011;42956;51.366;11.298;2023-02-28T14:28:40;9.50;;;5.22;;
57071;SDS011;42956;51.366;11.298;2023-02-28T14:31:11;10.10;;;6.60;;
57071;SDS011;42956;51.366;11.298;2023-02-28T14:33:43;12.70;;;6.65;;
57071;SDS011;42956;51.366;11.298;2023-02-28T14:36:16;10.73;;;5.85;;
57071;SDS011;42956;51.366;11.298;2023-02-28T14:38:45;7.82;;;5.72;;
57071;SDS011;42956;51.366;11.298;2023-02-28T14:41:18;8.98;;;5.95;;
57071;SDS011;42956;51.366;11.298;2023-02-28T14:43:48;12.30;;;6.50;;
57071;SDS011;42956;51.366;11.298;2023-02-28T14:46:16;9.40;;;5.55;;
57071;SDS011;42956;51.366;11.298;2023-02-28T14:48:45;8.65;;;5.53;;
57071;SDS011;42956;51.366;11.298;2023-02-28T14:51:19;8.88;;;5.88;;
57071;SDS011;42956;51.366;11.298;2023-02-28T14:53:48;9.27;;;6.13;;
57071;SDS011;42956;51.366;11.298;2023-02-28T14:56:21;9.45;;;5.80;;
57071;SDS011;42956;51.366;11.298;2023-02-28T14:58:52;9.73;;;6.35;;
57071;SDS011;42956;51.366;11.298;2023-02-28T15:01:21;9.25;;;5.72;;
57071;SDS011;42956;51.366;11.298;2023-02-28T15:03:56;10.18;;;5.90;;
57071;SDS011;42956;51.366;11.298;2023-02-28T15:06:26;10.15;;;6.85;;
57071;SDS011;42956;51.366;11.298;2023-02-28T15:09:14;8.40;;;5.78;;
57071;SDS011;42956;51.366;11.298;2023-02-28T15:11:45;8.52;;;6.03;;
57071;SDS011;42956;51.366;11.298;2023-02-28T15:14:14;12.27;;;6.53;;
57071;SDS011;42956;51.366;11.298;2023-02-28T15:16:43;7.45;;;5.82;;
57071;SDS011;42956;51.366;11.298;2023-02-28T15:19:13;9.82;;;5.78;;
57071;SDS011;42956;51.366;11.298;2023-02-28T15:21:43;9.38;;;5.22;;
57071;SDS011;42956;51.366;11.298;2023-02-28T15:24:14;8.95;;;5.97;;
57071;SDS011;42956;51.366;11.298;2023-02-28T15:26:51;9.65;;;6.30;;
57071;SDS011;42956;51.366;11.298;2023-02-28T15:29:21;15.32;;;7.82;;
57071;SDS011;42956;51.366;11.298;2023-02-28T15:31:51;9.02;;;6.53;;